sensor_id;sensor_type;location;lat;lon;timestamp;P1;durP1;ratioP1;P2;durP2;ratioP2
63693;SDS011;49839;51.798;10.954;2024-03-06T00:01:11;19.27;;;10.43;;
63693;SDS011;49839;51.798;10.954;2024-03-06T00:03:39;17.42;;;11.00;;
63693;SDS011;49839;51.798;10.954;2024-03-06T00:06:07;19.73;;;11.15;;
63693;SDS011;49839;51.798;10.954;2024-03-06T00:08:35;22.10;;;11.82;;
63693;SDS011;49839;51.798;10.954;2024-03-06T00:11:03;19.27;;;11.63;;
63693;SDS011;49839;51.798;10.954;2024-03-06T00:13:31;20.40;;;11.43;;
63693;SDS011;49839;51.798;10.954;2024-03-06T00:15:58;18.00;;;11.98;;
63693;SDS011;49839;51.798;10.954;2024-03-06T00:18:26;21.15;;;11.48;;
63693;SDS011;49839;51.798;10.954;2024-03-06T00:20:53;19.25;;;12.40;;
63693;SDS011;49839;51.798;10.954;2024-03-06T00:23:22;22.50;;;12.32;;
63693;SDS011;49839;51.798;10.954;2024-03-06T00:25:50;20.37;;;12.13;;
63693;SDS011;49839;51.798;10.954;2024-03-06T00:28:17;21.63;;;12.80;;
63693;SDS011;49839;51.798;10.954;2024-03-06T00:30:45;17.88;;;10.98;;
63693;SDS011;49839;51.798;10.954;2024-03-06T00:33:12;19.13;;;11.75;;
63693;SDS011;49839;51.798;10.954;2024-03-06T00:35:40;17.08;;;11.48;;
63693;SDS011;49839;51.798;10.954;2024-03-06T00:38:08;19.85;;;12.18;;
63693;SDS011;49839;51.798;10.954;2024-03-06T00:40:37;20.67;;;12.05;;
63693;SDS011;49839;51.798;10.954;2024-03-06T00:43:04;16.67;;;11.43;;
63693;SDS011;49839;51.798;10.954;2024-03-06T00:45:32;30.08;;;12.18;;
63693;SDS011;49839;51.798;10.954;2024-03-06T00:47:59;18.35;;;10.43;;
63693;SDS011;49839;51.798;10.954;2024-03-06T00:50:27;19.80;;;11.80;;
63693;SDS011;49839;51.798;10.954;2024-03-06T00:52:54;21.30;;;11.50;;
63693;SDS011;49839;51.798;10.954;2024-03-06T00:55:22;22.88;;;11.20;;
63693;SDS011;49839;51.798;10.954;2024-03-06T00:57:50;17.92;;;11.35;;
63693;SDS011;49839;51.798;10.954;2024-03-06T01:00:19;19.63;;;11.98;;
63693;SDS011;49839;51.798;10.954;2024-03-06T01:02:46;18.40;;;10.32;;
63693;SDS011;49839;51.798;10.954;2024-03-06T01:05:14;19.25;;;11.25;;
63693;SDS011;49839;51.798;10.954;2024-03-06T01:07:41;16.05;;;11.02;;
63693;SDS011;49839;51.798;10.954;2024-03-06T01:10:09;22.45;;;10.93;;
63693;SDS011;49839;51.798;10.954;2024-03-06T01:12:37;21.00;;;11.68;;
63693;SDS011;49839;51.798;10.954;2024-03-06T01:15:06;19.92;;;11.10;;
63693;SDS011;49839;51.798;10.954;2024-03-06T01:17:34;16.80;;;10.48;;
63693;SDS011;49839;51.798;10.954;2024-03-06T01:20:01;17.67;;;10.52;;
63693;SDS011;49839;51.798;10.954;2024-03-06T01:22:31;18.83;;;10.25;;
63693;SDS011;49839;51.798;10.954;2024-03-06T01:24:58;20.38;;;9.30;;
63693;SDS011;49839;51.798;10.954;2024-03-06T01:27:26;16.23;;;9.85;;
63693;SDS011;49839;51.798;10.954;2024-03-06T01:29:54;15.60;;;9.57;;
63693;SDS011;49839;51.798;10.954;2024-03-06T01:32:23;19.50;;;9.90;;
63693;SDS011;49839;51.798;10.954;2024-03-06T01:34:50;17.25;;;10.43;;
63693;SDS011;49839;51.798;10.954;2024-03-06T01:37:18;18.23;;;10.25;;
63693;SDS011;49839;51.798;10.954;2024-03-06T01:39:45;19.98;;;9.70;;
63693;SDS011;49839;51.798;10.954;2024-03-06T01:42:12;16.08;;;9.68;;
63693;SDS011;49839;51.798;10.954;2024-03-06T01:44:40;19.58;;;9.65;;
63693;SDS011;49839;51.798;10.954;2024-03-06T01:47:07;13.52;;;9.18;;
63693;SDS011;49839;51.798;10.954;2024-03-06T01:49:36;18.95;;;8.82;;
63693;SDS011;49839;51.798;10.954;2024-03-06T01:52:11;18.25;;;9.65;;
63693;SDS011;49839;51.798;10.954;2024-03-06T01:54:40;20.00;;;9.48;;
63693;SDS011;49839;51.798;10.954;2024-03-06T01:57:07;18.27;;;9.77;;
63693;SDS011;49839;51.798;10.954;2024-03-06T01:59:35;17.05;;;9.65;;
63693;SDS011;49839;51.798;10.954;2024-03-06T02:02:03;18.33;;;9.88;;
63693;SDS011;49839;51.798;10.954;2024-03-06T02:04:31;20.65;;;10.13;;
63693;SDS011;49839;51.798;10.954;2024-03-06T02:07:00;17.83;;;9.32;;
63693;SDS011;49839;51.798;10.954;2024-03-06T02:09:28;17.70;;;10.83;;
63693;SDS011;49839;51.798;10.954;2024-03-06T02:11:55;21.17;;;10.32;;
63693;SDS011;49839;51.798;10.954;2024-03-06T02:14:23;19.65;;;9.95;;
63693;SDS011;49839;51.798;10.954;2024-03-06T02:16:50;18.42;;;11.00;;
63693;SDS011;49839;51.798;10.954;2024-03-06T02:19:18;20.67;;;11.23;;
63693;SDS011;49839;51.798;10.954;2024-03-06T02:21:46;19.20;;;10.57;;
63693;SDS011;49839;51.798;10.954;2024-03-06T02:24:14;16.67;;;10.70;;
63693;SDS011;49839;51.798;10.954;2024-03-06T02:26:41;17.88;;;11.00;;
63693;SDS011;49839;51.798;10.954;2024-03-06T02:29:09;14.98;;;9.63;;
63693;SDS011;49839;51.798;10.954;2024-03-06T02:31:37;17.02;;;10.27;;
63693;SDS011;49839;51.798;10.954;2024-03-06T02:34:05;17.98;;;10.77;;
63693;SDS011;49839;51.798;10.954;2024-03-06T02:36:33;20.15;;;11.27;;
63693;SDS011;49839;51.798;10.954;2024-03-06T02:39:01;14.23;;;9.80;;
63693;SDS011;49839;51.798;10.954;2024-03-06T02:41:35;20.45;;;10.00;;
63693;SDS011;49839;51.798;10.954;2024-03-06T02:44:03;18.65;;;9.90;;
63693;SDS011;49839;51.798;10.954;2024-03-06T02:46:31;14.65;;;9.18;;
63693;SDS011;49839;51.798;10.954;2024-03-06T02:48:58;13.93;;;9.18;;
63693;SDS011;49839;51.798;10.954;2024-03-06T02:51:26;18.02;;;10.20;;
63693;SDS011;49839;51.798;10.954;2024-03-06T02:53:53;21.67;;;10.93;;
63693;SDS011;49839;51.798;10.954;2024-03-06T02:56:22;17.30;;;11.13;;
63693;SDS011;49839;51.798;10.954;2024-03-06T02:58:49;17.65;;;9.82;;
63693;SDS011;49839;51.798;10.954;2024-03-06T03:01:18;21.88;;;8.82;;
63693;SDS011;49839;51.798;10.954;2024-03-06T03:03:46;16.60;;;10.05;;
63693;SDS011;49839;51.798;10.954;2024-03-06T03:06:13;18.30;;;10.63;;
63693;SDS011;49839;51.798;10.954;2024-03-06T03:08:41;19.13;;;10.40;;
63693;SDS011;49839;51.798;10.954;2024-03-06T03:11:08;17.98;;;10.60;;
63693;SDS011;49839;51.798;10.954;2024-03-06T03:13:40;20.48;;;10.57;;
63693;SDS011;49839;51.798;10.954;2024-03-06T03:16:14;16.83;;;10.55;;
63693;SDS011;49839;51.798;10.954;2024-03-06T03:18:44;17.55;;;10.48;;
63693;SDS011;49839;51.798;10.954;2024-03-06T03:21:11;15.73;;;9.85;;
63693;SDS011;49839;51.798;10.954;2024-03-06T03:23:39;14.77;;;8.60;;
63693;SDS011;49839;51.798;10.954;2024-03-06T03:26:07;16.85;;;9.65;;
63693;SDS011;49839;51.798;10.954;2024-03-06T03:28:37;17.40;;;9.48;;
63693;SDS011;49839;51.798;10.954;2024-03-06T03:31:07;15.10;;;10.15;;
63693;SDS011;49839;51.798;10.954;2024-03-06T03:33:35;18.60;;;10.52;;
63693;SDS011;49839;51.798;10.954;2024-03-06T03:36:04;17.10;;;9.95;;
63693;SDS011;49839;51.798;10.954;2024-03-06T03:38:32;18.30;;;10.15;;
63693;SDS011;49839;51.798;10.954;2024-03-06T03:41:02;15.60;;;9.75;;
63693;SDS011;49839;51.798;10.954;2024-03-06T03:43:30;14.90;;;9.07;;
63693;SDS011;49839;51.798;10.954;2024-03-06T03:45:59;18.63;;;10.35;;
63693;SDS011;49839;51.798;10.954;2024-03-06T03:48:27;17.67;;;9.38;;
63693;SDS011;49839;51.798;10.954;2024-03-06T03:50:55;19.20;;;10.50;;
63693;SDS011;49839;51.798;10.954;2024-03-06T03:53:22;16.73;;;10.02;;
63693;SDS011;49839;51.798;10.954;2024-03-06T03:55:50;16.98;;;10.05;;
63693;SDS011;49839;51.798;10.954;2024-03-06T03:58:17;22.45;;;10.20;;
63693;SDS011;49839;51.798;10.954;2024-03-06T04:00:45;19.92;;;10.48;;
63693;SDS011;49839;51.798;10.954;2024-03-06T04:03:12;18.10;;;10.43;;
63693;SDS011;49839;51.798;10.954;2024-03-06T04:05:41;18.08;;;10.25;;
63693;SDS011;49839;51.798;10.954;2024-03-06T04:08:08;21.35;;;12.73;;
63693;SDS011;49839;51.798;10.954;2024-03-06T04:10:36;21.17;;;10.13;;
63693;SDS011;49839;51.798;10.954;2024-03-06T04:13:07;18.67;;;11.10;;
63693;SDS011;49839;51.798;10.954;2024-03-06T04:15:34;14.75;;;9.77;;
63693;SDS011;49839;51.798;10.954;2024-03-06T04:18:01;16.92;;;10.07;;
63693;SDS011;49839;51.798;10.954;2024-03-06T04:20:29;18.38;;;10.30;;
63693;SDS011;49839;51.798;10.954;2024-03-06T04:22:58;20.90;;;10.98;;
63693;SDS011;49839;51.798;10.954;2024-03-06T04:25:25;17.67;;;10.93;;
63693;SDS011;49839;51.798;10.954;2024-03-06T04:27:54;17.42;;;11.05;;
63693;SDS011;49839;51.798;10.954;2024-03-06T04:30:21;20.90;;;11.85;;
63693;SDS011;49839;51.798;10.954;2024-03-06T04:32:49;21.27;;;12.43;;
63693;SDS011;49839;51.798;10.954;2024-03-06T04:35:16;19.00;;;10.90;;
63693;SDS011;49839;51.798;10.954;2024-03-06T04:37:44;32.45;;;11.15;;
63693;SDS011;49839;51.798;10.954;2024-03-06T04:40:13;21.00;;;11.48;;
63693;SDS011;49839;51.798;10.954;2024-03-06T04:42:45;17.35;;;10.68;;
63693;SDS011;49839;51.798;10.954;2024-03-06T04:45:14;17.15;;;9.85;;
63693;SDS011;49839;51.798;10.954;2024-03-06T04:47:41;19.20;;;10.50;;
63693;SDS011;49839;51.798;10.954;2024-03-06T04:50:09;17.65;;;10.82;;
63693;SDS011;49839;51.798;10.954;2024-03-06T04:52:37;16.90;;;9.80;;
63693;SDS011;49839;51.798;10.954;2024-03-06T04:55:05;20.77;;;11.27;;
63693;SDS011;49839;51.798;10.954;2024-03-06T04:57:34;26.50;;;17.98;;
63693;SDS011;49839;51.798;10.954;2024-03-06T05:00:02;22.45;;;15.50;;
63693;SDS011;49839;51.798;10.954;2024-03-06T05:02:32;17.40;;;11.38;;
63693;SDS011;49839;51.798;10.954;2024-03-06T05:05:17;20.20;;;12.48;;
63693;SDS011;49839;51.798;10.954;2024-03-06T05:08:02;18.83;;;11.02;;
63693;SDS011;49839;51.798;10.954;2024-03-06T05:10:47;20.70;;;11.52;;
63693;SDS011;49839;51.798;10.954;2024-03-06T05:13:34;18.92;;;11.52;;
63693;SDS011;49839;51.798;10.954;2024-03-06T05:16:18;20.02;;;10.93;;
63693;SDS011;49839;51.798;10.954;2024-03-06T05:19:05;18.10;;;9.75;;
63693;SDS011;49839;51.798;10.954;2024-03-06T05:21:50;17.25;;;10.85;;
63693;SDS011;49839;51.798;10.954;2024-03-06T05:24:35;15.60;;;9.65;;
63693;SDS011;49839;51.798;10.954;2024-03-06T05:27:20;20.20;;;10.68;;
63693;SDS011;49839;51.798;10.954;2024-03-06T05:30:07;20.75;;;11.63;;
63693;SDS011;49839;51.798;10.954;2024-03-06T05:32:52;24.05;;;11.68;;
63693;SDS011;49839;51.798;10.954;2024-03-06T05:35:37;19.55;;;11.15;;
63693;SDS011;49839;51.798;10.954;2024-03-06T05:38:22;19.30;;;10.43;;
63693;SDS011;49839;51.798;10.954;2024-03-06T05:41:07;20.55;;;11.48;;
63693;SDS011;49839;51.798;10.954;2024-03-06T05:43:52;17.92;;;11.23;;
63693;SDS011;49839;51.798;10.954;2024-03-06T05:46:38;19.15;;;12.40;;
63693;SDS011;49839;51.798;10.954;2024-03-06T05:49:23;20.50;;;12.13;;
63693;SDS011;49839;51.798;10.954;2024-03-06T05:52:08;20.58;;;11.63;;
63693;SDS011;49839;51.798;10.954;2024-03-06T05:54:53;18.80;;;10.73;;
63693;SDS011;49839;51.798;10.954;2024-03-06T05:57:38;18.80;;;10.45;;
63693;SDS011;49839;51.798;10.954;2024-03-06T06:00:23;18.38;;;11.20;;
63693;SDS011;49839;51.798;10.954;2024-03-06T06:02:52;17.45;;;11.32;;
63693;SDS011;49839;51.798;10.954;2024-03-06T06:05:19;20.70;;;11.85;;
63693;SDS011;49839;51.798;10.954;2024-03-06T06:07:49;20.83;;;11.02;;
63693;SDS011;49839;51.798;10.954;2024-03-06T06:10:17;16.35;;;11.23;;
63693;SDS011;49839;51.798;10.954;2024-03-06T06:12:47;19.02;;;11.57;;
63693;SDS011;49839;51.798;10.954;2024-03-06T06:15:15;20.73;;;11.35;;
63693;SDS011;49839;51.798;10.954;2024-03-06T06:17:43;21.90;;;12.43;;
63693;SDS011;49839;51.798;10.954;2024-03-06T06:20:13;24.75;;;12.70;;
63693;SDS011;49839;51.798;10.954;2024-03-06T06:22:43;21.33;;;11.70;;
63693;SDS011;49839;51.798;10.954;2024-03-06T06:25:11;18.00;;;10.35;;
63693;SDS011;49839;51.798;10.954;2024-03-06T06:27:38;18.73;;;11.32;;
63693;SDS011;49839;51.798;10.954;2024-03-06T06:30:06;19.08;;;11.43;;
63693;SDS011;49839;51.798;10.954;2024-03-06T06:32:39;21.85;;;11.35;;
63693;SDS011;49839;51.798;10.954;2024-03-06T06:35:08;19.08;;;12.57;;
63693;SDS011;49839;51.798;10.954;2024-03-06T06:37:39;16.02;;;10.95;;
63693;SDS011;49839;51.798;10.954;2024-03-06T06:40:06;19.33;;;11.75;;
63693;SDS011;49839;51.798;10.954;2024-03-06T06:42:34;20.75;;;10.95;;
63693;SDS011;49839;51.798;10.954;2024-03-06T06:45:03;17.55;;;9.82;;
63693;SDS011;49839;51.798;10.954;2024-03-06T06:47:32;19.70;;;11.93;;
63693;SDS011;49839;51.798;10.954;2024-03-06T06:50:00;22.27;;;11.40;;
63693;SDS011;49839;51.798;10.954;2024-03-06T06:52:32;20.77;;;11.90;;
63693;SDS011;49839;51.798;10.954;2024-03-06T06:55:01;20.95;;;12.02;;
63693;SDS011;49839;51.798;10.954;2024-03-06T06:57:30;23.58;;;12.27;;
63693;SDS011;49839;51.798;10.954;2024-03-06T06:59:59;17.57;;;11.13;;
63693;SDS011;49839;51.798;10.954;2024-03-06T07:02:27;20.52;;;11.23;;
63693;SDS011;49839;51.798;10.954;2024-03-06T07:04:55;17.38;;;10.18;;
63693;SDS011;49839;51.798;10.954;2024-03-06T07:07:23;20.33;;;11.68;;
63693;SDS011;49839;51.798;10.954;2024-03-06T07:09:51;18.17;;;10.05;;
63693;SDS011;49839;51.798;10.954;2024-03-06T07:12:19;22.90;;;12.25;;
63693;SDS011;49839;51.798;10.954;2024-03-06T07:14:48;18.15;;;11.02;;
63693;SDS011;49839;51.798;10.954;2024-03-06T07:17:15;16.17;;;9.95;;
63693;SDS011;49839;51.798;10.954;2024-03-06T07:19:43;19.88;;;12.23;;
63693;SDS011;49839;51.798;10.954;2024-03-06T07:22:10;17.38;;;11.23;;
63693;SDS011;49839;51.798;10.954;2024-03-06T07:24:38;19.67;;;11.30;;
63693;SDS011;49839;51.798;10.954;2024-03-06T07:27:05;22.70;;;12.38;;
63693;SDS011;49839;51.798;10.954;2024-03-06T07:29:36;20.30;;;11.73;;
63693;SDS011;49839;51.798;10.954;2024-03-06T07:32:04;21.97;;;12.67;;
63693;SDS011;49839;51.798;10.954;2024-03-06T07:34:32;21.65;;;13.02;;
63693;SDS011;49839;51.798;10.954;2024-03-06T07:37:00;17.50;;;11.23;;
63693;SDS011;49839;51.798;10.954;2024-03-06T07:39:31;14.75;;;9.52;;
63693;SDS011;49839;51.798;10.954;2024-03-06T07:41:58;18.70;;;11.10;;
63693;SDS011;49839;51.798;10.954;2024-03-06T07:44:26;18.30;;;12.50;;
63693;SDS011;49839;51.798;10.954;2024-03-06T07:46:55;20.27;;;12.30;;
63693;SDS011;49839;51.798;10.954;2024-03-06T07:49:22;20.75;;;11.85;;
63693;SDS011;49839;51.798;10.954;2024-03-06T07:51:49;19.52;;;10.85;;
63693;SDS011;49839;51.798;10.954;2024-03-06T07:54:17;20.45;;;11.82;;
63693;SDS011;49839;51.798;10.954;2024-03-06T07:56:44;21.02;;;12.05;;
63693;SDS011;49839;51.798;10.954;2024-03-06T07:59:12;19.27;;;11.45;;
63693;SDS011;49839;51.798;10.954;2024-03-06T08:01:41;21.67;;;13.32;;
63693;SDS011;49839;51.798;10.954;2024-03-06T08:04:10;19.92;;;11.48;;
63693;SDS011;49839;51.798;10.954;2024-03-06T08:06:38;24.10;;;13.02;;
63693;SDS011;49839;51.798;10.954;2024-03-06T08:09:05;21.38;;;12.48;;
63693;SDS011;49839;51.798;10.954;2024-03-06T08:11:33;18.33;;;10.77;;
63693;SDS011;49839;51.798;10.954;2024-03-06T08:14:01;18.15;;;11.75;;
63693;SDS011;49839;51.798;10.954;2024-03-06T08:16:29;22.02;;;12.30;;
63693;SDS011;49839;51.798;10.954;2024-03-06T08:19:01;24.45;;;11.85;;
63693;SDS011;49839;51.798;10.954;2024-03-06T08:21:29;18.23;;;11.55;;
63693;SDS011;49839;51.798;10.954;2024-03-06T08:23:57;22.23;;;11.95;;
63693;SDS011;49839;51.798;10.954;2024-03-06T08:26:24;19.77;;;13.13;;
63693;SDS011;49839;51.798;10.954;2024-03-06T08:28:52;22.70;;;12.68;;
63693;SDS011;49839;51.798;10.954;2024-03-06T08:31:19;19.38;;;12.32;;
63693;SDS011;49839;51.798;10.954;2024-03-06T08:33:47;19.95;;;12.32;;
63693;SDS011;49839;51.798;10.954;2024-03-06T08:36:15;20.70;;;12.93;;
63693;SDS011;49839;51.798;10.954;2024-03-06T08:38:44;21.08;;;12.68;;
63693;SDS011;49839;51.798;10.954;2024-03-06T08:41:11;23.80;;;12.80;;
63693;SDS011;49839;51.798;10.954;2024-03-06T08:43:39;21.50;;;12.18;;
63693;SDS011;49839;51.798;10.954;2024-03-06T08:46:06;24.00;;;12.38;;
63693;SDS011;49839;51.798;10.954;2024-03-06T08:48:34;22.85;;;12.90;;
63693;SDS011;49839;51.798;10.954;2024-03-06T08:51:02;19.90;;;13.35;;
63693;SDS011;49839;51.798;10.954;2024-03-06T08:53:36;24.02;;;13.43;;
63693;SDS011;49839;51.798;10.954;2024-03-06T08:56:06;22.85;;;13.75;;
63693;SDS011;49839;51.798;10.954;2024-03-06T08:58:33;19.63;;;13.20;;
63693;SDS011;49839;51.798;10.954;2024-03-06T09:01:01;22.67;;;13.25;;
63693;SDS011;49839;51.798;10.954;2024-03-06T09:03:28;23.35;;;12.40;;
63693;SDS011;49839;51.798;10.954;2024-03-06T09:05:57;22.52;;;12.63;;
63693;SDS011;49839;51.798;10.954;2024-03-06T09:08:26;20.02;;;13.13;;
63693;SDS011;49839;51.798;10.954;2024-03-06T09:10:53;20.10;;;13.13;;
63693;SDS011;49839;51.798;10.954;2024-03-06T09:13:24;21.30;;;13.00;;
63693;SDS011;49839;51.798;10.954;2024-03-06T09:15:51;23.75;;;13.38;;
63693;SDS011;49839;51.798;10.954;2024-03-06T09:18:18;21.90;;;13.93;;
63693;SDS011;49839;51.798;10.954;2024-03-06T09:20:46;22.73;;;12.75;;
63693;SDS011;49839;51.798;10.954;2024-03-06T09:23:13;19.95;;;12.85;;
63693;SDS011;49839;51.798;10.954;2024-03-06T09:25:41;22.73;;;13.70;;
63693;SDS011;49839;51.798;10.954;2024-03-06T09:28:09;23.90;;;15.23;;
63693;SDS011;49839;51.798;10.954;2024-03-06T09:30:38;19.80;;;13.48;;
63693;SDS011;49839;51.798;10.954;2024-03-06T09:33:05;24.70;;;14.67;;
63693;SDS011;49839;51.798;10.954;2024-03-06T09:35:33;23.92;;;15.52;;
63693;SDS011;49839;51.798;10.954;2024-03-06T09:38:01;25.08;;;15.20;;
63693;SDS011;49839;51.798;10.954;2024-03-06T09:40:28;24.10;;;15.07;;
63693;SDS011;49839;51.798;10.954;2024-03-06T09:42:57;23.97;;;15.20;;
63693;SDS011;49839;51.798;10.954;2024-03-06T09:45:24;25.67;;;15.82;;
63693;SDS011;49839;51.798;10.954;2024-03-06T09:47:54;22.48;;;14.63;;
63693;SDS011;49839;51.798;10.954;2024-03-06T09:50:22;26.17;;;15.15;;
63693;SDS011;49839;51.798;10.954;2024-03-06T09:52:51;26.25;;;15.32;;
63693;SDS011;49839;51.798;10.954;2024-03-06T09:55:19;26.60;;;14.23;;
63693;SDS011;49839;51.798;10.954;2024-03-06T09:57:46;25.63;;;14.68;;
63693;SDS011;49839;51.798;10.954;2024-03-06T10:00:14;22.27;;;15.68;;
63693;SDS011;49839;51.798;10.954;2024-03-06T10:02:46;27.67;;;16.60;;
63693;SDS011;49839;51.798;10.954;2024-03-06T10:05:23;30.40;;;15.52;;
63693;SDS011;49839;51.798;10.954;2024-03-06T10:07:51;26.25;;;15.68;;
63693;SDS011;49839;51.798;10.954;2024-03-06T10:10:19;23.75;;;14.32;;
63693;SDS011;49839;51.798;10.954;2024-03-06T10:12:46;23.20;;;14.02;;
63693;SDS011;49839;51.798;10.954;2024-03-06T10:15:14;28.63;;;14.30;;
63693;SDS011;49839;51.798;10.954;2024-03-06T10:17:42;24.35;;;16.13;;
63693;SDS011;49839;51.798;10.954;2024-03-06T10:20:16;23.88;;;15.02;;
63693;SDS011;49839;51.798;10.954;2024-03-06T10:22:48;25.42;;;16.15;;
63693;SDS011;49839;51.798;10.954;2024-03-06T10:25:21;25.60;;;15.25;;
63693;SDS011;49839;51.798;10.954;2024-03-06T10:28:02;27.15;;;16.48;;
63693;SDS011;49839;51.798;10.954;2024-03-06T10:30:30;27.00;;;15.63;;
63693;SDS011;49839;51.798;10.954;2024-03-06T10:32:57;23.55;;;15.85;;
63693;SDS011;49839;51.798;10.954;2024-03-06T10:35:26;26.83;;;16.35;;
63693;SDS011;49839;51.798;10.954;2024-03-06T10:37:55;25.58;;;16.63;;
63693;SDS011;49839;51.798;10.954;2024-03-06T10:40:22;24.42;;;15.55;;
63693;SDS011;49839;51.798;10.954;2024-03-06T10:42:50;26.27;;;16.45;;
63693;SDS011;49839;51.798;10.954;2024-03-06T10:45:18;28.85;;;17.02;;
63693;SDS011;49839;51.798;10.954;2024-03-06T10:47:46;27.50;;;15.48;;
63693;SDS011;49839;51.798;10.954;2024-03-06T10:50:15;23.08;;;15.13;;
63693;SDS011;49839;51.798;10.954;2024-03-06T10:52:42;24.42;;;15.43;;
63693;SDS011;49839;51.798;10.954;2024-03-06T10:55:14;24.65;;;16.13;;
63693;SDS011;49839;51.798;10.954;2024-03-06T10:57:42;28.33;;;16.33;;
63693;SDS011;49839;51.798;10.954;2024-03-06T11:00:11;27.52;;;13.52;;
63693;SDS011;49839;51.798;10.954;2024-03-06T11:02:44;22.98;;;14.40;;
63693;SDS011;49839;51.798;10.954;2024-03-06T11:05:14;22.30;;;15.20;;
63693;SDS011;49839;51.798;10.954;2024-03-06T11:07:42;26.00;;;15.10;;
63693;SDS011;49839;51.798;10.954;2024-03-06T11:10:10;20.33;;;13.32;;
63693;SDS011;49839;51.798;10.954;2024-03-06T11:12:44;20.73;;;13.13;;
63693;SDS011;49839;51.798;10.954;2024-03-06T11:15:15;19.80;;;12.75;;
63693;SDS011;49839;51.798;10.954;2024-03-06T11:17:43;20.48;;;13.88;;
63693;SDS011;49839;51.798;10.954;2024-03-06T11:20:16;20.05;;;11.60;;
63693;SDS011;49839;51.798;10.954;2024-03-06T11:25:56;25.05;;;14.40;;
63693;SDS011;49839;51.798;10.954;2024-03-06T11:28:27;20.85;;;12.27;;
63693;SDS011;49839;51.798;10.954;2024-03-06T11:30:55;24.08;;;12.45;;
63693;SDS011;49839;51.798;10.954;2024-03-06T11:33:26;23.73;;;13.85;;
63693;SDS011;49839;51.798;10.954;2024-03-06T11:38:41;23.90;;;13.77;;
63693;SDS011;49839;51.798;10.954;2024-03-06T11:41:09;18.85;;;13.05;;
63693;SDS011;49839;51.798;10.954;2024-03-06T11:43:43;23.50;;;14.23;;
63693;SDS011;49839;51.798;10.954;2024-03-06T11:46:10;20.33;;;14.10;;
63693;SDS011;49839;51.798;10.954;2024-03-06T11:48:38;21.30;;;12.85;;
63693;SDS011;49839;51.798;10.954;2024-03-06T11:51:06;23.00;;;13.00;;
63693;SDS011;49839;51.798;10.954;2024-03-06T11:53:34;25.40;;;13.52;;
63693;SDS011;49839;51.798;10.954;2024-03-06T11:56:05;18.92;;;11.75;;
63693;SDS011;49839;51.798;10.954;2024-03-06T11:58:33;19.90;;;12.48;;
63693;SDS011;49839;51.798;10.954;2024-03-06T12:01:02;22.73;;;14.18;;
63693;SDS011;49839;51.798;10.954;2024-03-06T12:03:30;21.92;;;14.60;;
63693;SDS011;49839;51.798;10.954;2024-03-06T12:05:57;20.77;;;13.18;;
63693;SDS011;49839;51.798;10.954;2024-03-06T12:08:25;21.38;;;13.82;;
63693;SDS011;49839;51.798;10.954;2024-03-06T12:10:52;20.83;;;13.35;;
63693;SDS011;49839;51.798;10.954;2024-03-06T12:13:21;21.57;;;14.03;;
63693;SDS011;49839;51.798;10.954;2024-03-06T12:15:49;21.20;;;14.10;;
63693;SDS011;49839;51.798;10.954;2024-03-06T12:18:18;19.75;;;13.13;;
63693;SDS011;49839;51.798;10.954;2024-03-06T12:20:45;21.52;;;13.45;;
63693;SDS011;49839;51.798;10.954;2024-03-06T12:23:21;24.23;;;14.88;;
63693;SDS011;49839;51.798;10.954;2024-03-06T12:26:01;24.10;;;13.23;;
63693;SDS011;49839;51.798;10.954;2024-03-06T12:28:30;22.77;;;13.63;;
63693;SDS011;49839;51.798;10.954;2024-03-06T12:30:57;21.23;;;13.32;;
63693;SDS011;49839;51.798;10.954;2024-03-06T12:33:28;20.02;;;14.20;;
63693;SDS011;49839;51.798;10.954;2024-03-06T12:36:03;18.67;;;13.02;;
63693;SDS011;49839;51.798;10.954;2024-03-06T12:38:30;22.20;;;13.80;;
63693;SDS011;49839;51.798;10.954;2024-03-06T12:40:58;23.05;;;13.73;;
63693;SDS011;49839;51.798;10.954;2024-03-06T12:43:26;22.02;;;13.73;;
63693;SDS011;49839;51.798;10.954;2024-03-06T12:45:55;21.60;;;11.50;;
63693;SDS011;49839;51.798;10.954;2024-03-06T12:48:25;19.73;;;12.57;;
63693;SDS011;49839;51.798;10.954;2024-03-06T12:50:56;25.08;;;14.15;;
63693;SDS011;49839;51.798;10.954;2024-03-06T12:53:31;22.30;;;13.27;;
63693;SDS011;49839;51.798;10.954;2024-03-06T12:56:01;20.98;;;12.68;;
63693;SDS011;49839;51.798;10.954;2024-03-06T12:58:29;19.40;;;13.13;;
63693;SDS011;49839;51.798;10.954;2024-03-06T13:00:57;19.50;;;12.57;;
63693;SDS011;49839;51.798;10.954;2024-03-06T13:03:25;22.52;;;13.32;;
63693;SDS011;49839;51.798;10.954;2024-03-06T13:05:52;22.13;;;12.20;;
63693;SDS011;49839;51.798;10.954;2024-03-06T13:08:21;24.33;;;14.13;;
63693;SDS011;49839;51.798;10.954;2024-03-06T13:10:48;21.42;;;13.07;;
63693;SDS011;49839;51.798;10.954;2024-03-06T13:13:16;22.75;;;13.00;;
63693;SDS011;49839;51.798;10.954;2024-03-06T13:15:43;25.17;;;12.82;;
63693;SDS011;49839;51.798;10.954;2024-03-06T13:18:12;21.77;;;12.52;;
63693;SDS011;49839;51.798;10.954;2024-03-06T13:20:40;21.15;;;14.18;;
63693;SDS011;49839;51.798;10.954;2024-03-06T13:23:07;21.05;;;13.77;;
63693;SDS011;49839;51.798;10.954;2024-03-06T13:25:37;26.25;;;14.68;;
63693;SDS011;49839;51.798;10.954;2024-03-06T13:28:04;21.30;;;12.82;;
63693;SDS011;49839;51.798;10.954;2024-03-06T13:30:32;26.08;;;14.57;;
63693;SDS011;49839;51.798;10.954;2024-03-06T13:32:59;19.55;;;13.02;;
63693;SDS011;49839;51.798;10.954;2024-03-06T13:35:27;20.95;;;12.82;;
63693;SDS011;49839;51.798;10.954;2024-03-06T13:37:55;20.50;;;11.60;;
63693;SDS011;49839;51.798;10.954;2024-03-06T13:40:22;20.50;;;13.70;;
63693;SDS011;49839;51.798;10.954;2024-03-06T13:42:51;19.80;;;12.70;;
63693;SDS011;49839;51.798;10.954;2024-03-06T13:45:18;20.38;;;12.38;;
63693;SDS011;49839;51.798;10.954;2024-03-06T13:47:46;19.77;;;11.43;;
63693;SDS011;49839;51.798;10.954;2024-03-06T13:50:15;19.75;;;10.95;;
63693;SDS011;49839;51.798;10.954;2024-03-06T13:52:42;21.33;;;12.73;;
63693;SDS011;49839;51.798;10.954;2024-03-06T13:55:10;17.25;;;11.25;;
63693;SDS011;49839;51.798;10.954;2024-03-06T13:57:39;18.35;;;12.20;;
63693;SDS011;49839;51.798;10.954;2024-03-06T14:00:09;19.83;;;12.65;;
63693;SDS011;49839;51.798;10.954;2024-03-06T14:02:43;22.70;;;12.73;;
63693;SDS011;49839;51.798;10.954;2024-03-06T14:05:12;22.52;;;12.35;;
63693;SDS011;49839;51.798;10.954;2024-03-06T14:07:40;25.98;;;12.23;;
63693;SDS011;49839;51.798;10.954;2024-03-06T14:10:08;22.85;;;13.90;;
63693;SDS011;49839;51.798;10.954;2024-03-06T14:12:38;20.23;;;11.95;;
63693;SDS011;49839;51.798;10.954;2024-03-06T14:15:06;23.63;;;12.52;;
63693;SDS011;49839;51.798;10.954;2024-03-06T14:17:40;18.00;;;11.45;;
63693;SDS011;49839;51.798;10.954;2024-03-06T14:20:08;24.42;;;11.80;;
63693;SDS011;49839;51.798;10.954;2024-03-06T14:22:38;16.67;;;11.10;;
63693;SDS011;49839;51.798;10.954;2024-03-06T14:25:06;22.02;;;11.52;;
63693;SDS011;49839;51.798;10.954;2024-03-06T14:27:34;19.58;;;12.43;;
63693;SDS011;49839;51.798;10.954;2024-03-06T14:30:03;21.75;;;11.68;;